sensor_id;sensor_type;location;lat;lon;timestamp;pressure;altitude;pressure_sealevel;temperature;humidity
76603;BME280;65075;48.390;17.598;2024-01-30T00:02:05;101963.66;;;3.61;66.62
76603;BME280;65075;48.390;17.598;2024-01-30T00:04:31;101954.38;;;3.80;65.68
76603;BME280;65075;48.390;17.598;2024-01-30T00:06:57;101939.59;;;3.26;67.30
76603;BME280;65075;48.390;17.598;2024-01-30T00:09:22;101935.81;;;3.77;65.65
76603;BME280;65075;48.390;17.598;2024-01-30T00:11:48;101925.22;;;2.67;67.90
76603;BME280;65075;48.390;17.598;2024-01-30T00:14:13;101946.72;;;3.43;66.85
76603;BME280;65075;48.390;17.598;2024-01-30T00:16:39;101944.66;;;3.21;67.77
76603;BME280;65075;48.390;17.598;2024-01-30T00:19:04;101936.31;;;3.64;65.38
76603;BME280;65075;48.390;17.598;2024-01-30T00:21:30;101937.13;;;3.48;67.52
76603;BME280;65075;48.390;17.598;2024-01-30T00:23:55;101941.63;;;3.24;67.73
76603;BME280;65075;48.390;17.598;2024-01-30T00:26:21;101948.41;;;3.36;66.66
76603;BME280;65075;48.390;17.598;2024-01-30T00:28:46;101921.25;;;2.79;68.50
76603;BME280;65075;48.390;17.598;2024-01-30T00:31:12;101942.84;;;3.45;67.22
76603;BME280;65075;48.390;17.598;2024-01-30T00:33:38;101931.47;;;3.10;68.09
76603;BME280;65075;48.390;17.598;2024-01-30T00:36:05;101949.91;;;3.22;67.29
76603;BME280;65075;48.390;17.598;2024-01-30T00:38:31;101948.44;;;3.60;66.88
76603;BME280;65075;48.390;17.598;2024-01-30T00:40:57;101956.16;;;3.31;67.61
76603;BME280;65075;48.390;17.598;2024-01-30T00:43:22;101959.38;;;2.93;69.00
76603;BME280;65075;48.390;17.598;2024-01-30T00:45:50;101959.03;;;3.45;67.32
76603;BME280;65075;48.390;17.598;2024-01-30T00:48:17;101948.44;;;3.52;66.00
76603;BME280;65075;48.390;17.598;2024-01-30T00:50:42;101970.75;;;3.62;66.37
76603;BME280;65075;48.390;17.598;2024-01-30T00:53:08;101963.97;;;3.58;67.17
76603;BME280;65075;48.390;17.598;2024-01-30T00:55:34;101926.63;;;2.79;69.14
76603;BME280;65075;48.390;17.598;2024-01-30T00:58:00;101921.94;;;3.39;65.66
76603;BME280;65075;48.390;17.598;2024-01-30T01:00:25;101966.16;;;3.55;67.75
76603;BME280;65075;48.390;17.598;2024-01-30T01:03:03;101945.41;;;3.63;65.31
76603;BME280;65075;48.390;17.598;2024-01-30T01:05:29;101966.66;;;3.50;67.50
76603;BME280;65075;48.390;17.598;2024-01-30T01:07:54;101960.28;;;3.67;66.81
76603;BME280;65075;48.390;17.598;2024-01-30T01:10:20;101965.56;;;3.93;65.84
76603;BME280;65075;48.390;17.598;2024-01-30T01:12:48;101953.16;;;3.42;66.86
76603;BME280;65075;48.390;17.598;2024-01-30T01:15:13;101972.25;;;3.15;68.10
76603;BME280;65075;48.390;17.598;2024-01-30T01:17:39;101953.72;;;3.20;68.08
76603;BME280;65075;48.390;17.598;2024-01-30T01:20:06;101959.88;;;3.38;68.13
76603;BME280;65075;48.390;17.598;2024-01-30T01:22:32;101949.38;;;3.27;67.69
76603;BME280;65075;48.390;17.598;2024-01-30T01:24:59;101908.59;;;3.30;66.91
76603;BME280;65075;48.390;17.598;2024-01-30T01:27:25;101946.28;;;3.64;66.57
76603;BME280;65075;48.390;17.598;2024-01-30T01:29:51;101955.13;;;3.32;66.43
76603;BME280;65075;48.390;17.598;2024-01-30T01:32:16;101956.81;;;3.25;67.75
76603;BME280;65075;48.390;17.598;2024-01-30T01:34:42;101958.56;;;3.58;66.73
76603;BME280;65075;48.390;17.598;2024-01-30T01:37:08;101948.34;;;3.20;67.37
76603;BME280;65075;48.390;17.598;2024-01-30T01:39:33;101944.31;;;3.24;67.92
76603;BME280;65075;48.390;17.598;2024-01-30T01:41:59;101951.25;;;3.34;67.93
76603;BME280;65075;48.390;17.598;2024-01-30T01:44:24;101957.44;;;3.11;67.63
76603;BME280;65075;48.390;17.598;2024-01-30T01:46:51;101961.59;;;3.47;67.04
76603;BME280;65075;48.390;17.598;2024-01-30T01:49:16;101957.28;;;2.78;69.49
76603;BME280;65075;48.390;17.598;2024-01-30T01:51:43;101920.88;;;2.23;69.39
76603;BME280;65075;48.390;17.598;2024-01-30T01:54:11;101952.78;;;2.61;69.78
76603;BME280;65075;48.390;17.598;2024-01-30T01:56:36;101941.59;;;3.82;66.09
76603;BME280;65075;48.390;17.598;2024-01-30T01:59:08;101926.66;;;2.87;68.09
76603;BME280;65075;48.390;17.598;2024-01-30T02:01:37;101938.63;;;3.43;67.79
76603;BME280;65075;48.390;17.598;2024-01-30T02:04:02;101937.31;;;3.55;66.60
76603;BME280;65075;48.390;17.598;2024-01-30T02:06:28;101922.38;;;2.43;70.96
76603;BME280;65075;48.390;17.598;2024-01-30T02:08:54;101944.72;;;2.95;69.33
76603;BME280;65075;48.390;17.598;2024-01-30T02:11:22;101949.84;;;3.14;68.47
76603;BME280;65075;48.390;17.598;2024-01-30T02:13:48;101937.50;;;3.04;68.97
76603;BME280;65075;48.390;17.598;2024-01-30T02:16:14;101957.13;;;2.54;70.43
76603;BME280;65075;48.390;17.598;2024-01-30T02:18:39;101940.00;;;3.39;67.39
76603;BME280;65075;48.390;17.598;2024-01-30T02:21:10;101888.72;;;3.55;66.21
76603;BME280;65075;48.390;17.598;2024-01-30T02:23:36;101943.19;;;3.42;67.14
76603;BME280;65075;48.390;17.598;2024-01-30T02:26:03;101949.06;;;3.30;67.62
76603;BME280;65075;48.390;17.598;2024-01-30T02:28:28;101881.75;;;2.62;68.19
76603;BME280;65075;48.390;17.598;2024-01-30T02:30:54;101927.88;;;2.93;68.74
76603;BME280;65075;48.390;17.598;2024-01-30T02:33:19;101943.28;;;3.17;68.15
76603;BME280;65075;48.390;17.598;2024-01-30T02:35:47;101942.69;;;3.39;67.41
76603;BME280;65075;48.390;17.598;2024-01-30T02:38:13;101906.22;;;3.27;67.42
76603;BME280;65075;48.390;17.598;2024-01-30T02:40:38;101929.22;;;3.47;66.99
76603;BME280;65075;48.390;17.598;2024-01-30T02:43:04;101937.28;;;3.39;68.07
76603;BME280;65075;48.390;17.598;2024-01-30T02:45:29;101948.34;;;3.20;67.71
76603;BME280;65075;48.390;17.598;2024-01-30T02:47:55;101923.63;;;2.82;69.30
76603;BME280;65075;48.390;17.598;2024-01-30T02:50:20;101913.53;;;2.93;69.45
76603;BME280;65075;48.390;17.598;2024-01-30T02:52:46;101922.38;;;2.17;70.97
76603;BME280;65075;48.390;17.598;2024-01-30T02:55:12;101936.47;;;2.97;68.74
76603;BME280;65075;48.390;17.598;2024-01-30T02:57:38;101939.56;;;2.42;70.15
76603;BME280;65075;48.390;17.598;2024-01-30T03:00:05;101927.78;;;3.19;68.12
76603;BME280;65075;48.390;17.598;2024-01-30T03:02:32;101942.84;;;2.87;69.40
76603;BME280;65075;48.390;17.598;2024-01-30T03:04:59;101930.41;;;3.03;69.46
76603;BME280;65075;48.390;17.598;2024-01-30T03:07:25;101918.28;;;2.99;69.22
76603;BME280;65075;48.390;17.598;2024-01-30T03:09:50;101928.59;;;2.69;70.32
76603;BME280;65075;48.390;17.598;2024-01-30T03:12:16;101927.03;;;3.01;69.02
76603;BME280;65075;48.390;17.598;2024-01-30T03:14:41;101911.88;;;3.00;69.04
76603;BME280;65075;48.390;17.598;2024-01-30T03:17:07;101909.84;;;2.94;68.73
76603;BME280;65075;48.390;17.598;2024-01-30T03:19:33;101926.31;;;3.32;67.79
76603;BME280;65075;48.390;17.598;2024-01-30T03:21:59;101887.75;;;1.97;70.99
76603;BME280;65075;48.390;17.598;2024-01-30T03:24:24;101880.41;;;2.74;69.43
76603;BME280;65075;48.390;17.598;2024-01-30T03:26:50;101916.97;;;3.11;67.98
76603;BME280;65075;48.390;17.598;2024-01-30T03:29:15;101920.00;;;3.08;69.10
76603;BME280;65075;48.390;17.598;2024-01-30T03:31:41;101910.81;;;2.84;69.26
76603;BME280;65075;48.390;17.598;2024-01-30T03:34:06;101926.25;;;2.74;69.46
76603;BME280;65075;48.390;17.598;2024-01-30T03:36:32;101867.94;;;2.65;68.20
76603;BME280;65075;48.390;17.598;2024-01-30T03:39:01;101923.19;;;2.69;70.94
76603;BME280;65075;48.390;17.598;2024-01-30T03:41:27;101921.47;;;2.60;70.47
76603;BME280;65075;48.390;17.598;2024-01-30T03:43:53;101913.00;;;2.55;70.45
76603;BME280;65075;48.390;17.598;2024-01-30T03:46:18;101918.91;;;2.51;70.76
76603;BME280;65075;48.390;17.598;2024-01-30T03:48:45;101913.28;;;2.44;70.95
76603;BME280;65075;48.390;17.598;2024-01-30T03:51:10;101891.56;;;2.20;70.93
76603;BME280;65075;48.390;17.598;2024-01-30T03:53:40;101921.09;;;3.39;68.33
76603;BME280;65075;48.390;17.598;2024-01-30T03:56:07;101935.84;;;3.11;69.48
76603;BME280;65075;48.390;17.598;2024-01-30T03:58:32;101922.38;;;2.43;70.51
76603;BME280;65075;48.390;17.598;2024-01-30T04:00:58;101914.41;;;3.01;69.44
76603;BME280;65075;48.390;17.598;2024-01-30T04:03:23;101932.13;;;3.12;69.55
76603;BME280;65075;48.390;17.598;2024-01-30T04:05:51;101927.78;;;3.19;68.26
76603;BME280;65075;48.390;17.598;2024-01-30T04:08:16;101926.06;;;2.68;69.73
76603;BME280;65075;48.390;17.598;2024-01-30T04:10:42;101932.69;;;3.23;68.40
76603;BME280;65075;48.390;17.598;2024-01-30T04:13:07;101927.56;;;3.04;68.62
76603;BME280;65075;48.390;17.598;2024-01-30T04:15:33;101918.53;;;2.79;68.95
76603;BME280;65075;48.390;17.598;2024-01-30T04:17:58;101923.50;;;2.66;69.46
76603;BME280;65075;48.390;17.598;2024-01-30T04:20:24;101930.06;;;2.98;69.06
76603;BME280;65075;48.390;17.598;2024-01-30T04:22:50;101922.75;;;3.24;68.58
76603;BME280;65075;48.390;17.598;2024-01-30T04:25:15;101872.25;;;2.50;69.11
76603;BME280;65075;48.390;17.598;2024-01-30T04:27:41;101924.38;;;3.09;68.70
76603;BME280;65075;48.390;17.598;2024-01-30T04:30:07;101881.59;;;2.38;69.55
76603;BME280;65075;48.390;17.598;2024-01-30T04:32:33;101922.88;;;2.72;69.36
76603;BME280;65075;48.390;17.598;2024-01-30T04:34:58;101900.78;;;2.69;70.17
76603;BME280;65075;48.390;17.598;2024-01-30T04:37:24;101922.25;;;2.86;69.71
76603;BME280;65075;48.390;17.598;2024-01-30T04:39:50;101922.00;;;3.06;68.05
76603;BME280;65075;48.390;17.598;2024-01-30T04:42:16;101906.94;;;2.02;72.04
76603;BME280;65075;48.390;17.598;2024-01-30T04:44:42;101909.50;;;2.97;69.75
76603;BME280;65075;48.390;17.598;2024-01-30T04:47:08;101922.53;;;3.17;68.34
76603;BME280;65075;48.390;17.598;2024-01-30T04:49:35;101941.47;;;2.83;68.79
76603;BME280;65075;48.390;17.598;2024-01-30T04:52:01;101931.28;;;2.69;69.97
76603;BME280;65075;48.390;17.598;2024-01-30T04:54:27;101901.38;;;2.88;68.15
76603;BME280;65075;48.390;17.598;2024-01-30T04:56:53;101883.75;;;2.68;69.08
76603;BME280;65075;48.390;17.598;2024-01-30T04:59:19;101928.81;;;2.50;70.19
76603;BME280;65075;48.390;17.598;2024-01-30T05:01:44;101929.88;;;2.91;69.55
76603;BME280;65075;48.390;17.598;2024-01-30T05:04:10;101884.88;;;2.50;68.95
76603;BME280;65075;48.390;17.598;2024-01-30T05:06:36;101939.38;;;2.69;69.51
76603;BME280;65075;48.390;17.598;2024-01-30T05:09:02;101936.22;;;2.48;71.33
76603;BME280;65075;48.390;17.598;2024-01-30T05:11:30;101927.03;;;2.33;72.09
76603;BME280;65075;48.390;17.598;2024-01-30T05:13:56;101924.34;;;2.33;71.13
76603;BME280;65075;48.390;17.598;2024-01-30T05:16:21;101915.00;;;2.45;70.87
76603;BME280;65075;48.390;17.598;2024-01-30T05:18:47;101945.50;;;2.79;70.84
76603;BME280;65075;48.390;17.598;2024-01-30T05:21:12;101932.63;;;2.65;69.84
76603;BME280;65075;48.390;17.598;2024-01-30T05:23:38;101916.25;;;2.33;71.77
76603;BME280;65075;48.390;17.598;2024-01-30T05:26:04;101947.00;;;2.48;71.54
76603;BME280;65075;48.390;17.598;2024-01-30T05:28:30;101944.31;;;2.82;70.38
76603;BME280;65075;48.390;17.598;2024-01-30T05:30:56;101946.53;;;2.86;69.64
76603;BME280;65075;48.390;17.598;2024-01-30T05:33:21;101949.25;;;2.35;72.71
76603;BME280;65075;48.390;17.598;2024-01-30T05:35:47;101918.13;;;2.15;71.51
76603;BME280;65075;48.390;17.598;2024-01-30T05:38:15;101945.59;;;2.70;70.33
76603;BME280;65075;48.390;17.598;2024-01-30T05:40:40;101928.78;;;3.18;68.29
76603;BME280;65075;48.390;17.598;2024-01-30T05:43:06;101950.34;;;2.76;70.23
76603;BME280;65075;48.390;17.598;2024-01-30T05:45:31;101907.19;;;2.68;69.50
76603;BME280;65075;48.390;17.598;2024-01-30T05:47:57;101962.41;;;2.64;71.07
76603;BME280;65075;48.390;17.598;2024-01-30T05:50:22;101959.50;;;2.57;71.53
76603;BME280;65075;48.390;17.598;2024-01-30T05:52:48;101907.72;;;2.20;70.68
76603;BME280;65075;48.390;17.598;2024-01-30T05:55:14;101926.47;;;2.04;72.48
76603;BME280;65075;48.390;17.598;2024-01-30T05:57:40;101945.38;;;2.12;73.35
76603;BME280;65075;48.390;17.598;2024-01-30T06:00:05;101948.63;;;2.67;70.80
76603;BME280;65075;48.390;17.598;2024-01-30T06:02:31;101938.66;;;2.59;71.09
76603;BME280;65075;48.390;17.598;2024-01-30T06:04:57;101939.44;;;2.85;70.64
76603;BME280;65075;48.390;17.598;2024-01-30T06:07:22;101943.00;;;2.94;69.29
76603;BME280;65075;48.390;17.598;2024-01-30T06:09:48;101902.94;;;1.62;72.76
76603;BME280;65075;48.390;17.598;2024-01-30T06:12:13;101939.25;;;1.66;73.94
76603;BME280;65075;48.390;17.598;2024-01-30T06:14:39;101917.78;;;2.36;70.60
76603;BME280;65075;48.390;17.598;2024-01-30T06:17:05;101966.53;;;2.50;71.46
76603;BME280;65075;48.390;17.598;2024-01-30T06:19:31;101951.00;;;2.44;71.75
76603;BME280;65075;48.390;17.598;2024-01-30T06:21:57;101968.44;;;2.58;71.33
76603;BME280;65075;48.390;17.598;2024-01-30T06:24:23;101959.34;;;2.33;71.73
76603;BME280;65075;48.390;17.598;2024-01-30T06:26:48;101947.81;;;2.23;72.57
76603;BME280;65075;48.390;17.598;2024-01-30T06:29:15;101956.63;;;2.51;72.16
76603;BME280;65075;48.390;17.598;2024-01-30T06:31:42;101953.44;;;2.55;72.06
76603;BME280;65075;48.390;17.598;2024-01-30T06:34:10;101947.50;;;2.77;70.51
76603;BME280;65075;48.390;17.598;2024-01-30T06:36:37;101961.88;;;2.60;70.79
76603;BME280;65075;48.390;17.598;2024-01-30T06:39:03;101961.34;;;2.82;70.70
76603;BME280;65075;48.390;17.598;2024-01-30T06:41:29;101963.44;;;2.97;70.28
76603;BME280;65075;48.390;17.598;2024-01-30T06:43:55;101968.75;;;2.11;72.86
76603;BME280;65075;48.390;17.598;2024-01-30T06:46:21;101929.44;;;2.44;72.14
76603;BME280;65075;48.390;17.598;2024-01-30T06:48:47;101960.50;;;2.82;71.01
76603;BME280;65075;48.390;17.598;2024-01-30T06:51:12;101963.84;;;3.18;68.77
76603;BME280;65075;48.390;17.598;2024-01-30T06:53:38;101957.22;;;2.70;70.99
76603;BME280;65075;48.390;17.598;2024-01-30T06:56:04;101971.31;;;3.32;69.68
76603;BME280;65075;48.390;17.598;2024-01-30T06:58:30;101954.47;;;3.30;69.41
76603;BME280;65075;48.390;17.598;2024-01-30T07:00:56;101960.63;;;3.88;66.86
76603;BME280;65075;48.390;17.598;2024-01-30T07:03:21;101957.75;;;4.46;64.86
76603;BME280;65075;48.390;17.598;2024-01-30T07:05:47;101959.25;;;4.49;64.79
76603;BME280;65075;48.390;17.598;2024-01-30T07:08:14;101957.28;;;4.19;64.65
76603;BME280;65075;48.390;17.598;2024-01-30T07:10:45;101929.94;;;3.89;65.72
76603;BME280;65075;48.390;17.598;2024-01-30T07:13:11;101956.53;;;4.73;63.63
76603;BME280;65075;48.390;17.598;2024-01-30T07:15:37;101902.94;;;5.15;61.63
76603;BME280;65075;48.390;17.598;2024-01-30T07:18:03;101955.25;;;5.39;60.46
76603;BME280;65075;48.390;17.598;2024-01-30T07:20:30;101961.81;;;5.05;61.58
76603;BME280;65075;48.390;17.598;2024-01-30T07:22:58;101965.16;;;6.22;58.34
76603;BME280;65075;48.390;17.598;2024-01-30T07:25:23;101937.13;;;6.53;56.32
76603;BME280;65075;48.390;17.598;2024-01-30T07:27:55;101967.09;;;4.99;61.33
76603;BME280;65075;48.390;17.598;2024-01-30T07:30:20;101972.38;;;6.15;59.35
76603;BME280;65075;48.390;17.598;2024-01-30T07:32:46;101970.94;;;6.57;57.28
76603;BME280;65075;48.390;17.598;2024-01-30T07:35:12;101974.97;;;6.46;58.36
76603;BME280;65075;48.390;17.598;2024-01-30T07:37:38;101975.00;;;6.01;57.70
76603;BME280;65075;48.390;17.598;2024-01-30T07:40:04;101946.75;;;7.14;55.58
76603;BME280;65075;48.390;17.598;2024-01-30T07:42:30;101959.31;;;7.50;54.76
76603;BME280;65075;48.390;17.598;2024-01-30T07:44:55;101965.66;;;6.26;56.24
76603;BME280;65075;48.390;17.598;2024-01-30T07:47:21;101974.34;;;6.59;57.23
76603;BME280;65075;48.390;17.598;2024-01-30T07:49:47;101979.41;;;7.06;55.61
76603;BME280;65075;48.390;17.598;2024-01-30T07:52:13;101962.59;;;7.10;55.47
76603;BME280;65075;48.390;17.598;2024-01-30T07:54:38;101954.88;;;7.28;54.82
76603;BME280;65075;48.390;17.598;2024-01-30T07:57:04;101938.78;;;6.54;56.93
76603;BME280;65075;48.390;17.598;2024-01-30T07:59:29;101961.91;;;7.94;54.17
76603;BME280;65075;48.390;17.598;2024-01-30T08:01:57;101969.31;;;8.77;51.76
76603;BME280;65075;48.390;17.598;2024-01-30T08:04:22;101974.00;;;7.92;53.40
76603;BME280;65075;48.390;17.598;2024-01-30T08:06:48;101931.97;;;6.72;55.92
76603;BME280;65075;48.390;17.598;2024-01-30T08:09:14;101964.84;;;7.42;55.05
76603;BME280;65075;48.390;17.598;2024-01-30T08:11:39;101963.81;;;7.08;55.67
76603;BME280;65075;48.390;17.598;2024-01-30T08:14:05;101960.00;;;7.74;54.61
76603;BME280;65075;48.390;17.598;2024-01-30T08:16:30;101966.09;;;7.25;56.00
76603;BME280;65075;48.390;17.598;2024-01-30T08:18:56;101983.28;;;6.45;57.40
76603;BME280;65075;48.390;17.598;2024-01-30T08:21:24;101966.75;;;6.54;57.71
76603;BME280;65075;48.390;17.598;2024-01-30T08:23:51;101961.28;;;6.02;58.64
76603;BME280;65075;48.390;17.598;2024-01-30T08:26:17;101971.94;;;6.04;59.06
76603;BME280;65075;48.390;17.598;2024-01-30T08:28:43;101987.53;;;6.24;59.03
76603;BME280;65075;48.390;17.598;2024-01-30T08:31:10;101968.44;;;7.79;55.02
76603;BME280;65075;48.390;17.598;2024-01-30T08:33:37;101970.81;;;7.67;55.59
76603;BME280;65075;48.390;17.598;2024-01-30T08:36:02;101976.81;;;6.08;60.21
76603;BME280;65075;48.390;17.598;2024-01-30T08:38:28;101960.75;;;7.46;56.25
76603;BME280;65075;48.390;17.598;2024-01-30T08:40:54;101952.81;;;6.57;57.55
76603;BME280;65075;48.390;17.598;2024-01-30T08:43:21;101977.50;;;8.07;53.88
76603;BME280;65075;48.390;17.598;2024-01-30T08:45:46;101976.00;;;7.83;55.24
76603;BME280;65075;48.390;17.598;2024-01-30T08:48:12;101968.88;;;7.82;55.05
76603;BME280;65075;48.390;17.598;2024-01-30T08:50:37;101972.56;;;7.75;55.40
76603;BME280;65075;48.390;17.598;2024-01-30T08:53:03;101995.47;;;8.50;53.11
76603;BME280;65075;48.390;17.598;2024-01-30T08:55:30;101972.63;;;7.45;55.23
76603;BME280;65075;48.390;17.598;2024-01-30T08:57:58;101964.25;;;6.97;57.67
76603;BME280;65075;48.390;17.598;2024-01-30T09:00:25;101961.81;;;7.88;55.75
76603;BME280;65075;48.390;17.598;2024-01-30T09:02:52;101963.34;;;7.04;56.59
76603;BME280;65075;48.390;17.598;2024-01-30T09:05:19;101970.66;;;7.54;55.89
76603;BME280;65075;48.390;17.598;2024-01-30T09:07:46;101985.94;;;7.40;56.18
76603;BME280;65075;48.390;17.598;2024-01-30T09:10:11;101995.69;;;7.71;55.18
76603;BME280;65075;48.390;17.598;2024-01-30T09:12:38;101973.59;;;7.23;56.84
76603;BME280;65075;48.390;17.598;2024-01-30T09:15:08;101977.69;;;7.84;55.63
76603;BME280;65075;48.390;17.598;2024-01-30T09:17:35;101966.09;;;7.97;54.05
76603;BME280;65075;48.390;17.598;2024-01-30T09:20:01;101991.59;;;7.75;54.19
76603;BME280;65075;48.390;17.598;2024-01-30T09:22:29;101978.56;;;8.27;54.30
76603;BME280;65075;48.390;17.598;2024-01-30T09:24:56;101984.50;;;7.95;53.92
76603;BME280;65075;48.390;17.598;2024-01-30T09:27:23;101985.91;;;8.33;54.48
76603;BME280;65075;48.390;17.598;2024-01-30T09:29:51;101986.91;;;7.18;57.65
76603;BME280;65075;48.390;17.598;2024-01-30T09:32:18;101978.53;;;8.48;53.87
76603;BME280;65075;48.390;17.598;2024-01-30T09:34:45;102001.63;;;7.60;55.08
76603;BME280;65075;48.390;17.598;2024-01-30T09:37:11;101963.94;;;7.50;56.17
76603;BME280;65075;48.390;17.598;2024-01-30T09:39:38;101981.09;;;8.29;53.68
76603;BME280;65075;48.390;17.598;2024-01-30T09:42:28;101970.66;;;7.90;55.17
76603;BME280;65075;48.390;17.598;2024-01-30T09:44:56;101972.56;;;7.75;56.14
76603;BME280;65075;48.390;17.598;2024-01-30T09:47:24;101975.06;;;8.89;52.55
76603;BME280;65075;48.390;17.598;2024-01-30T09:49:51;101950.75;;;7.32;55.83
76603;BME280;65075;48.390;17.598;2024-01-30T09:52:21;101984.13;;;8.96;52.94
76603;BME280;65075;48.390;17.598;2024-01-30T09:54:51;101956.00;;;8.89;51.77
76603;BME280;65075;48.390;17.598;2024-01-30T09:57:20;101978.81;;;9.22;51.71
76603;BME280;65075;48.390;17.598;2024-01-30T09:59:47;101983.28;;;7.62;55.71
76603;BME280;65075;48.390;17.598;2024-01-30T10:02:15;101941.88;;;8.44;53.98
76603;BME280;65075;48.390;17.598;2024-01-30T10:04:42;101938.13;;;7.61;55.64
76603;BME280;65075;48.390;17.598;2024-01-30T10:07:10;101963.75;;;8.57;52.75
76603;BME280;65075;48.390;17.598;2024-01-30T10:09:37;101957.09;;;8.18;54.91
76603;BME280;65075;48.390;17.598;2024-01-30T10:12:04;101962.84;;;9.12;52.60
76603;BME280;65075;48.390;17.598;2024-01-30T10:14:32;101954.41;;;9.01;53.07
76603;BME280;65075;48.390;17.598;2024-01-30T10:17:01;101940.59;;;9.50;51.40
76603;BME280;65075;48.390;17.598;2024-01-30T10:19:29;101947.94;;;9.49;51.04
76603;BME280;65075;48.390;17.598;2024-01-30T10:21:57;101955.34;;;9.21;52.26
76603;BME280;65075;48.390;17.598;2024-01-30T10:24:26;101948.78;;;9.56;51.27
76603;BME280;65075;48.390;17.598;2024-01-30T10:26:53;101956.56;;;9.12;52.21
76603;BME280;65075;48.390;17.598;2024-01-30T10:29:19;101945.41;;;9.54;51.66
76603;BME280;65075;48.390;17.598;2024-01-30T10:31:45;101926.59;;;9.12;52.63
76603;BME280;65075;48.390;17.598;2024-01-30T10:34:14;101952.06;;;8.63;53.19
76603;BME280;65075;48.390;17.598;2024-01-30T10:36:43;101941.28;;;9.85;50.71
76603;BME280;65075;48.390;17.598;2024-01-30T10:39:17;101931.47;;;9.23;51.77
76603;BME280;65075;48.390;17.598;2024-01-30T10:41:44;101893.75;;;7.54;55.45
76603;BME280;65075;48.390;17.598;2024-01-30T10:44:11;101905.91;;;8.00;54.64
76603;BME280;65075;48.390;17.598;2024-01-30T10:46:42;101930.09;;;8.99;53.26
76603;BME280;65075;48.390;17.598;2024-01-30T10:49:14;101901.78;;;8.53;53.84
76603;BME280;65075;48.390;17.598;2024-01-30T10:51:41;101918.94;;;9.35;53.46
76603;BME280;65075;48.390;17.598;2024-01-30T10:54:10;101908.78;;;9.09;54.45
76603;BME280;65075;48.390;17.598;2024-01-30T10:56:39;101899.34;;;9.72;52.17
76603;BME280;65075;48.390;17.598;2024-01-30T10:59:07;101910.13;;;8.51;53.99
76603;BME280;65075;48.390;17.598;2024-01-30T11:01:35;101898.91;;;9.62;52.32
76603;BME280;65075;48.390;17.598;2024-01-30T11:04:01;101899.31;;;9.53;50.71
76603;BME280;65075;48.390;17.598;2024-01-30T11:06:29;101893.00;;;9.52;51.85
76603;BME280;65075;48.390;17.598;2024-01-30T11:09:05;101894.50;;;9.01;54.22
76603;BME280;65075;48.390;17.598;2024-01-30T11:11:57;101879.91;;;9.15;53.32
76603;BME280;65075;48.390;17.598;2024-01-30T11:14:30;101880.06;;;8.66;55.57
76603;BME280;65075;48.390;17.598;2024-01-30T11:17:00;101868.66;;;7.73;55.83
76603;BME280;65075;48.390;17.598;2024-01-30T11:19:30;101884.69;;;7.89;56.71
76603;BME280;65075;48.390;17.598;2024-01-30T11:21:56;101867.91;;;10.03;51.45
76603;BME280;65075;48.390;17.598;2024-01-30T11:24:26;101881.41;;;9.24;53.64
76603;BME280;65075;48.390;17.598;2024-01-30T11:27:02;101882.84;;;9.20;52.27
76603;BME280;65075;48.390;17.598;2024-01-30T11:29:40;101865.09;;;8.21;53.49
76603;BME280;65075;48.390;17.598;2024-01-30T11:32:06;101869.72;;;9.43;51.49
76603;BME280;65075;48.390;17.598;2024-01-30T11:34:34;101888.03;;;9.69;50.67
76603;BME280;65075;48.390;17.598;2024-01-30T11:37:11;101860.84;;;9.15;52.03
76603;BME280;65075;48.390;17.598;2024-01-30T11:39:38;101854.16;;;7.87;54.89
76603;BME280;65075;48.390;17.598;2024-01-30T11:42:08;101879.34;;;8.23;54.67
76603;BME280;65075;48.390;17.598;2024-01-30T11:44:35;101843.22;;;8.29;54.30
76603;BME280;65075;48.390;17.598;2024-01-30T11:47:02;101876.31;;;8.12;55.49
76603;BME280;65075;48.390;17.598;2024-01-30T11:49:33;101855.47;;;8.19;55.33
76603;BME280;65075;48.390;17.598;2024-01-30T11:52:00;101824.91;;;8.17;55.75
76603;BME280;65075;48.390;17.598;2024-01-30T11:54:27;101856.44;;;8.11;56.36
76603;BME280;65075;48.390;17.598;2024-01-30T11:56:54;101837.13;;;9.09;53.88
76603;BME280;65075;48.390;17.598;2024-01-30T11:59:21;101831.63;;;9.83;50.55
76603;BME280;65075;48.390;17.598;2024-01-30T12:01:48;101839.94;;;9.42;52.42
76603;BME280;65075;48.390;17.598;2024-01-30T12:04:16;101832.44;;;7.23;58.99
76603;BME280;65075;48.390;17.598;2024-01-30T12:06:43;101829.25;;;7.83;57.66
76603;BME280;65075;48.390;17.598;2024-01-30T12:09:10;101820.16;;;8.59;55.27
76603;BME280;65075;48.390;17.598;2024-01-30T12:11:45;101825.38;;;9.02;54.78
76603;BME280;65075;48.390;17.598;2024-01-30T12:14:13;101825.88;;;8.30;55.67
76603;BME280;65075;48.390;17.598;2024-01-30T12:16:40;101814.47;;;7.65;57.48
76603;BME280;65075;48.390;17.598;2024-01-30T12:19:09;101799.19;;;8.47;54.81
76603;BME280;65075;48.390;17.598;2024-01-30T12:21:37;101813.31;;;8.29;55.96
76603;BME280;65075;48.390;17.598;2024-01-30T12:24:04;101801.50;;;8.50;55.14
76603;BME280;65075;48.390;17.598;2024-01-30T12:26:34;101800.44;;;8.44;54.93
76603;BME280;65075;48.390;17.598;2024-01-30T12:29:04;101802.44;;;8.29;55.23
76603;BME280;65075;48.390;17.598;2024-01-30T12:31:32;101811.69;;;7.86;56.47
76603;BME280;65075;48.390;17.598;2024-01-30T12:34:03;101791.16;;;8.32;55.36
76603;BME280;65075;48.390;17.598;2024-01-30T12:36:30;101793.25;;;8.30;56.24
76603;BME280;65075;48.390;17.598;2024-01-30T12:38:57;101739.50;;;7.77;56.06
76603;BME280;65075;48.390;17.598;2024-01-30T12:41:24;101798.25;;;8.33;55.79
76603;BME280;65075;48.390;17.598;2024-01-30T12:43:54;101796.88;;;8.50;55.39
76603;BME280;65075;48.390;17.598;2024-01-30T12:46:20;101775.97;;;8.98;54.37
76603;BME280;65075;48.390;17.598;2024-01-30T12:48:48;101739.53;;;8.45;55.80